createdAt,value
2018-07-03T00:02:30.177Z,2.00
2018-07-03T00:07:33.535Z,1.73
2018-07-03T00:12:36.710Z,1.90
2018-07-03T00:17:39.821Z,2.03
2018-07-03T00:22:42.927Z,1.63
2018-07-03T00:27:46.097Z,1.70
2018-07-03T00:32:49.212Z,1.40
2018-07-03T00:37:53.226Z,1.90
2018-07-03T00:42:56.367Z,1.57
2018-07-03T00:47:59.567Z,1.80
2018-07-03T00:53:02.727Z,1.90
2018-07-03T00:58:05.878Z,1.90
2018-07-03T01:03:09.020Z,1.70
2018-07-03T01:08:12.103Z,1.60
2018-07-03T01:13:15.236Z,1.43
2018-07-03T01:18:18.448Z,1.90
2018-07-03T01:23:21.540Z,1.93
2018-07-03T01:28:24.694Z,1.70
2018-07-03T01:33:28.002Z,1.67
2018-07-03T01:38:31.111Z,1.70
2018-07-03T01:43:34.328Z,1.43
2018-07-03T01:48:37.545Z,2.10
2018-07-03T01:53:40.782Z,1.53
2018-07-03T01:58:43.946Z,1.70
2018-07-03T02:03:47.070Z,1.50
2018-07-03T02:08:50.240Z,2.03
2018-07-03T02:13:53.709Z,1.50
2018-07-03T02:18:56.994Z,1.40
2018-07-03T02:24:00.230Z,1.57
2018-07-03T02:29:03.489Z,1.40
2018-07-03T02:34:06.697Z,1.70
2018-07-03T02:39:09.848Z,2.03
2018-07-03T02:44:13.033Z,1.43
2018-07-03T02:49:16.093Z,1.87
2018-07-03T02:54:19.187Z,1.93
2018-07-03T02:59:22.353Z,1.90
2018-07-03T03:04:25.436Z,1.63
2018-07-03T03:09:28.698Z,1.70
2018-07-03T03:14:32.207Z,1.57
2018-07-03T03:19:35.421Z,1.67
2018-07-03T03:24:39.122Z,1.90
2018-07-03T03:29:42.200Z,1.63
2018-07-03T03:34:45.310Z,1.90
2018-07-03T03:39:48.434Z,1.47
2018-07-03T03:44:51.515Z,1.87
2018-07-03T03:49:54.630Z,1.37
2018-07-03T03:54:58.117Z,1.50
2018-07-03T04:00:01.529Z,2.47
2018-07-03T04:05:04.923Z,1.90
2018-07-03T04:10:11.000Z,1.77
2018-07-03T04:15:17.787Z,1.90
2018-07-03T04:20:21.602Z,1.63
2018-07-03T04:25:25.201Z,1.87
2018-07-03T04:30:28.522Z,1.60
2018-07-03T04:35:32.852Z,1.60
2018-07-03T04:40:36.676Z,1.73
2018-07-03T04:45:39.886Z,1.87
2018-07-03T04:50:42.991Z,1.98
2018-07-03T04:55:46.208Z,1.60
2018-07-03T05:00:49.458Z,1.42
2018-07-03T05:05:52.508Z,1.42
2018-07-03T05:10:55.752Z,1.02
2018-07-03T05:15:58.997Z,1.20
2018-07-03T05:21:02.139Z,1.07
2018-07-03T05:26:05.415Z,1.05
2018-07-03T05:31:08.571Z,0.98
2018-07-03T05:36:11.753Z,1.07
2018-07-03T05:41:14.911Z,1.32
2018-07-03T05:46:18.264Z,1.02
2018-07-03T05:51:21.551Z,1.20
2018-07-03T05:56:24.832Z,0.98
2018-07-03T06:01:27.940Z,1.20
2018-07-03T06:06:31.096Z,1.10
2018-07-03T06:11:34.509Z,1.15
2018-07-03T06:16:37.637Z,1.40
2018-07-03T06:21:40.793Z,1.20
2018-07-03T06:26:43.887Z,1.10
2018-07-03T06:31:47.034Z,1.40
2018-07-03T06:36:50.098Z,1.30
2018-07-03T06:41:53.246Z,1.10
2018-07-03T06:46:56.373Z,1.40
2018-07-03T06:51:59.522Z,1.30
2018-07-03T06:57:02.658Z,1.20
2018-07-03T07:02:07.322Z,1.20
2018-07-03T07:07:10.493Z,1.10
2018-07-03T07:12:13.632Z,0.95
2018-07-03T07:17:17.661Z,1.20
2018-07-03T07:22:20.836Z,1.00
2018-07-03T07:27:24.019Z,1.20
2018-07-03T07:32:27.163Z,1.10
2018-07-03T07:37:30.332Z,1.30
2018-07-03T07:42:33.549Z,1.30
2018-07-03T07:47:36.659Z,1.00
2018-07-03T07:52:39.817Z,1.07
2018-07-03T07:57:42.920Z,1.00
2018-07-03T08:02:46.115Z,0.90
2018-07-03T08:07:49.430Z,0.90
2018-07-03T08:12:52.595Z,1.20
2018-07-03T08:17:55.743Z,1.00
2018-07-03T08:22:58.972Z,1.00
2018-07-03T08:28:02.111Z,0.93
2018-07-03T08:33:05.313Z,1.02
2018-07-03T08:38:08.474Z,0.90
2018-07-03T08:43:11.602Z,1.10
2018-07-03T08:48:14.789Z,0.80
2018-07-03T08:53:18.026Z,0.90
2018-07-03T08:58:21.149Z,0.80
2018-07-03T09:03:24.301Z,0.70
2018-07-03T09:08:27.560Z,0.80
2018-07-03T09:13:30.736Z,0.90
2018-07-03T09:18:33.848Z,1.02
2018-07-03T09:23:37.058Z,0.90
2018-07-03T09:28:40.165Z,0.70
2018-07-03T09:33:43.274Z,0.90
2018-07-03T09:38:46.394Z,0.90
2018-07-03T09:43:49.567Z,1.00
2018-07-03T09:48:52.777Z,0.80
2018-07-03T09:53:55.847Z,0.80
2018-07-03T09:58:59.000Z,0.88
2018-07-03T10:04:02.158Z,0.90
2018-07-03T10:09:07.304Z,0.70
2018-07-03T10:14:10.492Z,0.82
2018-07-03T10:19:13.583Z,1.02
2018-07-03T10:24:16.636Z,1.10
2018-07-03T10:29:19.743Z,0.90
2018-07-03T10:34:22.875Z,0.95
2018-07-03T10:39:26.018Z,0.85
2018-07-03T10:44:29.211Z,0.90
2018-07-03T10:49:32.392Z,0.88
2018-07-03T10:54:35.577Z,0.90
2018-07-03T10:59:38.745Z,0.90
2018-07-03T11:04:41.798Z,1.25
2018-07-03T11:09:45.000Z,1.02
2018-07-03T11:14:48.125Z,0.97
2018-07-03T11:19:51.365Z,0.93
2018-07-03T11:24:54.401Z,0.90
2018-07-03T11:29:57.559Z,1.00
2018-07-03T11:35:00.753Z,0.90
2018-07-03T11:40:04.008Z,1.03
2018-07-03T11:45:07.371Z,1.00
2018-07-03T11:50:10.492Z,0.93
2018-07-03T11:55:13.848Z,1.13
2018-07-03T12:00:17.686Z,1.00
2018-07-03T12:05:20.853Z,0.90
2018-07-03T12:10:24.140Z,0.83
2018-07-03T12:15:30.641Z,0.90
2018-07-03T12:20:34.313Z,0.70
2018-07-03T12:25:37.453Z,0.90
2018-07-03T12:30:40.637Z,0.97
2018-07-03T12:35:43.806Z,1.10
2018-07-03T12:40:46.998Z,0.90
2018-07-03T12:45:56.957Z,1.20
2018-07-03T12:51:00.925Z,1.10
2018-07-03T12:56:04.242Z,1.07
2018-07-03T13:01:07.549Z,1.17
2018-07-03T13:06:11.201Z,0.80
2018-07-03T13:11:14.591Z,1.10
2018-07-03T13:16:17.741Z,0.90
2018-07-03T13:21:20.903Z,1.07
2018-07-03T13:26:24.141Z,1.10
2018-07-03T13:31:27.520Z,0.80
2018-07-03T13:36:30.845Z,1.02
2018-07-03T13:41:34.115Z,1.10
2018-07-03T13:46:37.284Z,0.90
2018-07-03T13:51:40.508Z,0.90
2018-07-03T13:56:43.792Z,1.00
2018-07-03T14:01:46.977Z,0.93
2018-07-03T14:06:50.100Z,0.90
2018-07-03T14:11:53.210Z,1.00
2018-07-03T14:16:56.906Z,0.95
2018-07-03T14:22:00.393Z,0.70
2018-07-03T14:27:03.602Z,0.90
2018-07-03T14:32:07.129Z,0.98
2018-07-03T14:37:10.428Z,0.90
2018-07-03T14:42:13.607Z,1.00
2018-07-03T14:47:16.752Z,0.70
2018-07-03T14:52:19.936Z,0.93
2018-07-03T14:57:23.243Z,0.82
2018-07-03T15:02:26.413Z,0.80
2018-07-03T15:07:29.816Z,0.90
2018-07-03T15:12:33.447Z,1.00
2018-07-03T15:17:36.874Z,0.82
2018-07-03T15:22:40.172Z,0.93
2018-07-03T15:27:43.382Z,0.90
2018-07-03T15:32:46.570Z,1.00
2018-07-03T15:37:49.675Z,1.00
2018-07-03T15:42:52.852Z,1.00
2018-07-03T15:47:56.123Z,0.83
2018-07-03T15:52:59.466Z,0.72
2018-07-03T15:58:02.735Z,0.80
2018-07-03T16:03:17.040Z,0.75
2018-07-03T16:08:45.000Z,3.02
2018-07-03T16:13:48.272Z,1.30
2018-07-03T16:18:51.364Z,1.10
2018-07-03T16:23:54.486Z,0.90
2018-07-03T16:28:57.714Z,1.00
2018-07-03T16:34:01.135Z,1.27
2018-07-03T16:39:08.026Z,0.90
2018-07-03T16:44:13.249Z,1.32
2018-07-03T16:49:16.389Z,0.80
2018-07-03T16:54:19.499Z,1.30
2018-07-03T16:59:22.674Z,1.60
2018-07-03T17:04:25.869Z,3.40
2018-07-03T17:09:29.264Z,1.25
2018-07-03T17:14:32.489Z,1.30
2018-07-03T17:19:35.684Z,1.30
2018-07-03T17:24:39.270Z,0.90
2018-07-03T17:29:42.397Z,0.93
2018-07-03T17:34:45.501Z,1.07
2018-07-03T17:40:00.158Z,1.10
2018-07-03T17:45:40.815Z,1.03
2018-07-03T17:50:43.908Z,1.30
2018-07-03T17:55:47.062Z,1.00
2018-07-03T18:00:50.201Z,1.00
2018-07-03T18:05:53.358Z,0.87
2018-07-03T18:10:57.488Z,1.07
2018-07-03T18:16:00.816Z,1.10
2018-07-03T18:21:04.171Z,1.10
2018-07-03T18:26:08.699Z,1.03
2018-07-03T18:31:12.378Z,1.10
2018-07-03T18:36:16.442Z,2.10
2018-07-03T18:41:19.732Z,0.93
2018-07-03T18:46:23.248Z,1.20
2018-07-03T18:51:26.380Z,1.20
2018-07-03T18:56:29.776Z,1.23
2018-07-03T19:01:33.063Z,1.50
2018-07-03T19:06:36.442Z,1.20
2018-07-03T19:11:39.667Z,1.10
2018-07-03T19:16:42.827Z,1.13
2018-07-03T19:21:45.970Z,1.07
2018-07-03T19:26:49.110Z,1.70
2018-07-03T19:31:52.292Z,3.67
2018-07-03T19:36:55.368Z,2.07
2018-07-03T19:41:58.828Z,2.00
2018-07-03T19:47:02.183Z,2.10
2018-07-03T19:52:05.573Z,2.30
2018-07-03T19:57:08.803Z,2.27
2018-07-03T20:02:12.080Z,2.20
2018-07-03T20:07:15.186Z,1.90
2018-07-03T20:12:18.295Z,2.20
2018-07-03T20:17:21.420Z,2.90
2018-07-03T20:22:24.548Z,2.60
2018-07-03T20:27:28.055Z,2.00
2018-07-03T20:32:31.243Z,1.90
2018-07-03T20:37:56.935Z,2.07
2018-07-03T20:43:00.137Z,2.60
2018-07-03T20:48:03.327Z,2.53
2018-07-03T20:53:06.472Z,2.73
2018-07-03T20:58:09.637Z,2.50
2018-07-03T21:03:12.769Z,2.07
2018-07-03T21:08:15.924Z,2.23
2018-07-03T21:13:18.976Z,2.10
2018-07-03T21:18:22.078Z,1.87
2018-07-03T21:23:25.261Z,2.10
2018-07-03T21:28:28.474Z,2.50
2018-07-03T21:33:31.619Z,2.63
2018-07-03T21:38:34.728Z,2.40
2018-07-03T21:43:38.135Z,1.83
2018-07-03T21:48:41.239Z,2.17
2018-07-03T21:53:44.363Z,2.20
2018-07-03T21:58:47.553Z,3.03
2018-07-03T22:03:50.626Z,3.47
2018-07-03T22:08:53.719Z,2.87
2018-07-03T22:13:56.958Z,2.20
2018-07-03T22:19:00.247Z,2.33
2018-07-03T22:24:03.398Z,1.63
2018-07-03T22:29:06.472Z,2.00
2018-07-03T22:34:10.408Z,2.20
2018-07-03T22:39:13.574Z,2.10
2018-07-03T22:44:16.689Z,1.87
2018-07-03T22:49:19.820Z,1.80
2018-07-03T22:54:23.032Z,2.00
2018-07-03T22:59:26.079Z,2.20
2018-07-03T23:04:29.196Z,2.10
2018-07-03T23:09:32.317Z,2.03
2018-07-03T23:14:35.573Z,1.90
2018-07-03T23:19:38.714Z,2.00
2018-07-03T23:24:41.869Z,2.20
2018-07-03T23:29:45.008Z,2.10
2018-07-03T23:34:48.147Z,1.83
2018-07-03T23:39:51.317Z,2.07
2018-07-03T23:44:54.384Z,2.20
2018-07-03T23:50:08.776Z,1.90
2018-07-03T23:55:23.185Z,1.93
